createdAt,value
2022-11-02T00:00:30.569Z,14.88
2022-11-02T00:02:56.880Z,14.88
2022-11-02T00:05:23.164Z,14.89
2022-11-02T00:07:49.429Z,14.93
2022-11-02T00:10:15.667Z,14.93
2022-11-02T00:12:41.948Z,14.95
2022-11-02T00:15:08.213Z,14.95
2022-11-02T00:17:34.457Z,14.97
2022-11-02T00:20:00.758Z,15.00
2022-11-02T00:22:27.021Z,14.96
2022-11-02T00:24:53.273Z,14.93
2022-11-02T00:27:19.509Z,14.86
2022-11-02T00:29:45.743Z,14.78
2022-11-02T00:32:11.991Z,14.79
2022-11-02T00:34:38.243Z,14.77
2022-11-02T00:37:04.475Z,14.72
2022-11-02T00:39:30.739Z,14.70
2022-11-02T00:41:56.993Z,14.69
2022-11-02T00:44:23.249Z,14.74
2022-11-02T00:46:49.502Z,14.77
2022-11-02T00:49:15.759Z,14.82
2022-11-02T00:51:42.031Z,14.83
2022-11-02T00:54:08.282Z,14.79
2022-11-02T00:56:34.519Z,14.78
2022-11-02T00:59:00.764Z,14.81
2022-11-02T01:01:27.158Z,14.85
2022-11-02T01:03:53.495Z,14.87
2022-11-02T01:06:19.733Z,14.88
2022-11-02T01:08:45.980Z,14.90
2022-11-02T01:11:12.222Z,14.95
2022-11-02T01:13:38.462Z,14.98
2022-11-02T01:16:04.728Z,15.02
2022-11-02T01:18:31.014Z,15.03
2022-11-02T01:20:57.270Z,15.07
2022-11-02T01:23:23.519Z,15.05
2022-11-02T01:25:49.757Z,15.06
2022-11-02T01:28:15.995Z,15.09
2022-11-02T01:30:42.260Z,15.12
2022-11-02T01:33:08.498Z,15.12
2022-11-02T01:35:34.769Z,15.14
2022-11-02T01:38:01.194Z,15.20
2022-11-02T01:40:27.700Z,15.21
2022-11-02T01:42:53.940Z,15.22
2022-11-02T01:45:20.242Z,15.24
2022-11-02T01:47:46.495Z,15.28
2022-11-02T01:50:12.737Z,15.32
2022-11-02T01:52:39.046Z,15.36
2022-11-02T01:55:05.309Z,15.41
2022-11-02T01:57:31.755Z,15.43
2022-11-02T01:59:57.998Z,15.49
2022-11-02T02:02:24.836Z,15.51
2022-11-02T02:04:51.166Z,15.53
2022-11-02T02:07:17.405Z,15.56
2022-11-02T02:09:47.270Z,15.58
2022-11-02T02:12:16.666Z,15.60
2022-11-02T02:14:42.927Z,15.61
2022-11-02T02:17:09.181Z,15.65
2022-11-02T02:19:35.440Z,15.68
2022-11-02T02:22:01.685Z,15.68
2022-11-02T02:24:27.940Z,15.68
2022-11-02T02:26:54.200Z,15.68
2022-11-02T02:29:20.452Z,15.66
2022-11-02T02:31:46.689Z,15.65
2022-11-02T02:34:12.940Z,15.67
2022-11-02T02:36:39.269Z,15.68
2022-11-02T02:39:05.548Z,15.70
2022-11-02T02:41:31.805Z,15.70
2022-11-02T02:43:58.059Z,15.73
2022-11-02T02:46:24.301Z,15.73
2022-11-02T02:48:50.564Z,15.72
2022-11-02T02:51:16.845Z,15.71
2022-11-02T02:53:43.089Z,15.72
2022-11-02T02:56:09.351Z,15.73
2022-11-02T02:58:35.596Z,15.75
2022-11-02T03:01:01.825Z,15.77
2022-11-02T03:03:28.074Z,15.76
2022-11-02T03:05:54.340Z,15.79
2022-11-02T03:08:20.662Z,15.80
2022-11-02T03:10:46.915Z,15.82
2022-11-02T03:13:13.192Z,15.83
2022-11-02T03:15:39.437Z,15.84
2022-11-02T03:18:05.945Z,15.86
2022-11-02T03:20:32.478Z,15.87
2022-11-02T03:22:58.728Z,15.88
2022-11-02T03:25:24.999Z,15.89
2022-11-02T03:27:51.257Z,15.90
2022-11-02T03:30:17.508Z,15.90
2022-11-02T03:32:43.776Z,15.91
2022-11-02T03:35:10.030Z,15.90
2022-11-02T03:37:36.298Z,15.90
2022-11-02T03:40:02.554Z,15.92
2022-11-02T03:42:28.798Z,15.93
2022-11-02T03:44:55.063Z,15.98
2022-11-02T03:47:21.315Z,16.02
2022-11-02T03:49:47.611Z,16.02
2022-11-02T03:52:13.866Z,16.06
2022-11-02T03:54:40.137Z,16.04
2022-11-02T03:57:06.426Z,16.00
2022-11-02T03:59:32.689Z,16.02
2022-11-02T04:01:59.058Z,15.97
2022-11-02T04:04:25.471Z,15.98
2022-11-02T04:06:51.738Z,15.97
2022-11-02T04:09:17.994Z,15.99
2022-11-02T04:11:44.246Z,15.99
2022-11-02T04:14:10.518Z,15.94
2022-11-02T04:16:36.780Z,15.90
2022-11-02T04:19:03.075Z,15.86
2022-11-02T04:21:29.343Z,15.86
2022-11-02T04:23:55.593Z,15.86
2022-11-02T04:26:21.847Z,15.82
2022-11-02T04:28:48.101Z,15.82
2022-11-02T04:31:14.340Z,15.80
2022-11-02T04:33:40.613Z,15.74
2022-11-02T04:36:06.864Z,15.76
2022-11-02T04:38:33.117Z,15.75
2022-11-02T04:40:59.473Z,15.72
2022-11-02T04:43:25.720Z,15.70
2022-11-02T04:45:52.010Z,15.71
2022-11-02T04:48:18.249Z,15.65
2022-11-02T04:50:44.494Z,15.63
2022-11-02T04:53:10.757Z,15.60
2022-11-02T04:55:36.989Z,15.61
2022-11-02T04:58:03.382Z,15.60
2022-11-02T05:00:29.855Z,15.57
2022-11-02T05:02:56.193Z,15.59
2022-11-02T05:05:22.482Z,15.59
2022-11-02T05:07:48.760Z,15.59
2022-11-02T05:10:15.006Z,15.59
2022-11-02T05:12:41.259Z,15.61
2022-11-02T05:15:07.525Z,15.61
2022-11-02T05:17:33.755Z,15.57
2022-11-02T05:20:00.006Z,15.59
2022-11-02T05:22:26.271Z,15.55
2022-11-02T05:24:52.524Z,15.52
2022-11-02T05:27:18.788Z,15.48
2022-11-02T05:29:45.040Z,15.48
2022-11-02T05:32:11.313Z,15.46
2022-11-02T05:34:37.567Z,15.44
2022-11-02T05:37:03.837Z,15.44
2022-11-02T05:39:30.095Z,15.43
2022-11-02T05:41:56.359Z,15.40
2022-11-02T05:44:22.639Z,15.39
2022-11-02T05:46:48.903Z,15.39
2022-11-02T05:49:15.171Z,15.39
2022-11-02T05:51:41.463Z,15.37
2022-11-02T05:54:07.713Z,15.36
2022-11-02T05:56:33.972Z,15.36
2022-11-02T05:59:00.216Z,15.36
2022-11-02T06:01:26.556Z,15.38
2022-11-02T06:03:53.890Z,15.37
2022-11-02T06:06:20.968Z,15.35
2022-11-02T06:08:47.218Z,15.34
2022-11-02T06:11:13.472Z,15.33
2022-11-02T06:13:39.718Z,15.35
2022-11-02T06:16:05.973Z,15.36
2022-11-02T06:18:32.316Z,15.39
2022-11-02T06:20:58.545Z,15.40
2022-11-02T06:23:24.808Z,15.41
2022-11-02T06:25:51.073Z,15.41
2022-11-02T06:28:17.319Z,15.41
2022-11-02T06:30:43.575Z,15.44
2022-11-02T06:33:10.244Z,15.44
2022-11-02T06:35:36.685Z,15.44
2022-11-02T06:38:02.948Z,15.44
2022-11-02T06:40:29.230Z,15.45
2022-11-02T06:43:10.782Z,15.46
2022-11-02T06:45:41.452Z,15.47
2022-11-02T06:48:07.719Z,15.48
2022-11-02T06:50:33.969Z,15.49
2022-11-02T06:53:00.236Z,15.46
2022-11-02T06:55:26.494Z,15.49
2022-11-02T06:57:52.756Z,15.50
2022-11-02T07:00:22.591Z,15.52
2022-11-02T07:02:50.239Z,15.55
2022-11-02T07:05:16.481Z,15.56
2022-11-02T07:07:42.742Z,15.59
2022-11-02T07:10:08.994Z,15.62
2022-11-02T07:12:35.241Z,15.62
2022-11-02T07:15:01.529Z,15.65
2022-11-02T07:17:32.036Z,15.68
2022-11-02T07:19:58.609Z,15.71
2022-11-02T07:22:24.855Z,15.73
2022-11-02T07:24:51.114Z,15.73
2022-11-02T07:27:17.380Z,15.74
2022-11-02T07:29:43.637Z,15.75
2022-11-02T07:32:09.885Z,15.74
2022-11-02T07:34:36.119Z,15.75
2022-11-02T07:37:02.369Z,15.75
2022-11-02T07:39:28.632Z,15.77
2022-11-02T07:41:54.952Z,15.80
2022-11-02T07:44:21.264Z,15.81
2022-11-02T07:46:47.530Z,15.84
2022-11-02T07:49:18.678Z,15.86
2022-11-02T07:51:47.451Z,15.90
2022-11-02T07:54:13.705Z,15.91
2022-11-02T07:56:40.066Z,15.94
2022-11-02T07:59:06.370Z,15.98
2022-11-02T08:01:32.642Z,15.99
2022-11-02T08:03:58.922Z,16.01
2022-11-02T08:06:25.185Z,16.04
2022-11-02T08:08:51.447Z,16.05
2022-11-02T08:11:17.706Z,16.08
2022-11-02T08:13:43.952Z,16.09
2022-11-02T08:16:10.198Z,16.12
2022-11-02T08:18:36.444Z,16.14
2022-11-02T08:21:02.722Z,16.16
2022-11-02T08:23:29.002Z,16.16
2022-11-02T08:25:55.307Z,16.18
2022-11-02T08:28:21.591Z,16.20
2022-11-02T08:30:47.835Z,16.21
2022-11-02T08:33:14.101Z,16.24
2022-11-02T08:35:40.379Z,16.26
2022-11-02T08:38:07.099Z,16.27
2022-11-02T08:40:33.653Z,16.30
2022-11-02T08:42:59.911Z,16.33
2022-11-02T08:45:26.167Z,16.37
2022-11-02T08:47:52.414Z,16.37
2022-11-02T08:50:18.682Z,16.39
2022-11-02T08:52:44.948Z,16.42
2022-11-02T08:55:11.288Z,16.48
2022-11-02T08:57:37.535Z,16.53
2022-11-02T09:00:03.769Z,16.61
2022-11-02T09:02:30.162Z,16.68
2022-11-02T09:04:56.431Z,16.75
2022-11-02T09:07:22.699Z,16.78
2022-11-02T09:09:48.955Z,16.83
2022-11-02T09:12:15.221Z,16.90
2022-11-02T09:14:41.513Z,16.97
2022-11-02T09:17:07.801Z,17.02
2022-11-02T09:19:34.107Z,17.08
2022-11-02T09:22:04.848Z,17.16
2022-11-02T09:24:31.934Z,17.26
2022-11-02T09:26:58.173Z,17.33
2022-11-02T09:31:55.640Z,17.41
2022-11-02T09:34:21.892Z,17.42
2022-11-02T09:36:48.144Z,17.46
2022-11-02T09:39:14.412Z,17.50
2022-11-02T09:41:40.732Z,17.50
2022-11-02T09:44:07.000Z,17.53
2022-11-02T09:46:33.292Z,17.52
2022-11-02T09:48:59.548Z,17.60
2022-11-02T09:51:25.798Z,17.69
2022-11-02T09:53:52.056Z,17.67
2022-11-02T09:56:18.310Z,17.68
2022-11-02T09:58:44.569Z,17.69
2022-11-02T10:01:10.858Z,17.67
2022-11-02T10:03:37.157Z,17.70
2022-11-02T10:06:03.404Z,17.72
2022-11-02T10:08:29.694Z,17.80
2022-11-02T10:10:55.962Z,17.83
2022-11-02T10:13:22.217Z,17.85
2022-11-02T10:15:48.474Z,17.87
2022-11-02T10:18:14.714Z,17.86
2022-11-02T10:20:40.992Z,17.83
2022-11-02T10:23:07.524Z,17.80
2022-11-02T10:25:33.963Z,17.91
2022-11-02T10:28:00.269Z,17.93
2022-11-02T10:30:26.591Z,17.92
2022-11-02T10:32:52.883Z,17.92
2022-11-02T10:35:37.154Z,18.03
2022-11-02T10:38:09.290Z,18.05
2022-11-02T10:40:38.267Z,18.09
2022-11-02T10:43:04.548Z,18.06
2022-11-02T10:45:30.911Z,18.12
2022-11-02T10:47:57.157Z,18.14
2022-11-02T10:50:23.429Z,18.13
2022-11-02T10:52:49.699Z,18.14
2022-11-02T10:55:15.944Z,18.21
2022-11-02T10:57:42.199Z,18.27
2022-11-02T11:00:08.533Z,18.28
2022-11-02T11:02:34.800Z,18.33
2022-11-02T11:05:01.112Z,18.35
2022-11-02T11:07:27.396Z,18.39
2022-11-02T11:09:53.663Z,18.47
2022-11-02T11:12:19.908Z,18.60
2022-11-02T11:20:18.725Z,18.67
2022-11-02T11:22:45.013Z,18.73
2022-11-02T11:25:11.438Z,18.76
2022-11-02T11:27:37.788Z,18.78
2022-11-02T11:30:04.040Z,18.83
2022-11-02T11:32:30.950Z,18.96
2022-11-02T11:34:57.282Z,18.98
2022-11-02T11:37:23.532Z,19.09
2022-11-02T11:39:53.878Z,19.12
2022-11-02T11:42:21.283Z,18.85
2022-11-02T11:44:47.569Z,18.97
2022-11-02T11:47:13.838Z,19.14
2022-11-02T11:50:10.692Z,19.20
2022-11-02T11:52:31.181Z,19.32
2022-11-02T11:54:58.438Z,19.36
2022-11-02T11:57:24.956Z,19.46
2022-11-02T11:59:51.438Z,19.43
2022-11-02T12:02:17.951Z,19.48
2022-11-02T12:04:44.306Z,19.56
2022-11-02T12:07:10.575Z,19.59
2022-11-02T12:09:36.823Z,19.71
2022-11-02T12:12:03.075Z,19.72
2022-11-02T12:14:29.424Z,19.76
2022-11-02T12:16:55.685Z,19.87
2022-11-02T12:19:21.942Z,19.98
2022-11-02T12:21:48.206Z,20.04
2022-11-02T12:24:14.458Z,20.09
2022-11-02T12:26:40.693Z,20.14
2022-11-02T12:31:31.798Z,18.13
2022-11-02T12:33:58.082Z,18.15
2022-11-02T12:36:24.349Z,18.21
2022-11-02T12:38:50.596Z,18.35
2022-11-02T12:41:16.897Z,18.42
2022-11-02T12:43:43.156Z,18.52
2022-11-02T12:46:09.471Z,18.49
2022-11-02T12:48:35.752Z,18.46
2022-11-02T12:51:02.021Z,18.55
2022-11-02T12:53:28.279Z,18.59
2022-11-02T12:55:54.526Z,18.71
2022-11-02T12:58:20.828Z,18.79
2022-11-02T13:00:47.141Z,18.86
2022-11-02T13:03:13.445Z,18.92
2022-11-02T13:05:39.705Z,18.89
2022-11-02T13:08:06.375Z,18.90
2022-11-02T13:10:32.903Z,18.97
2022-11-02T13:12:59.153Z,19.11
2022-11-02T13:15:25.435Z,19.15
2022-11-02T13:17:51.684Z,19.24
2022-11-02T13:20:17.939Z,19.20
2022-11-02T13:22:44.208Z,19.22
2022-11-02T13:25:10.502Z,19.21
2022-11-02T13:27:38.492Z,19.23
2022-11-02T13:30:05.290Z,19.31
2022-11-02T13:32:33.973Z,19.23
2022-11-02T13:35:00.565Z,19.37
2022-11-02T13:37:26.835Z,19.43
2022-11-02T13:39:53.095Z,19.48
2022-11-02T13:42:19.342Z,19.53
2022-11-02T13:44:45.604Z,19.59
2022-11-02T13:47:11.873Z,19.68
2022-11-02T13:49:38.134Z,19.71
2022-11-02T13:52:04.408Z,19.76
2022-11-02T13:54:30.686Z,19.77
2022-11-02T13:56:56.941Z,19.77
2022-11-02T13:59:23.209Z,19.87
2022-11-02T14:01:49.549Z,19.98
2022-11-02T14:04:15.907Z,20.00
2022-11-02T14:06:42.155Z,19.93
2022-11-02T14:09:08.407Z,19.90
2022-11-02T14:11:34.651Z,19.92
2022-11-02T14:14:00.936Z,19.96
2022-11-02T14:16:27.189Z,20.00
2022-11-02T14:18:53.451Z,20.02
2022-11-02T14:21:19.808Z,19.98
2022-11-02T14:23:46.071Z,20.02
2022-11-02T14:26:12.399Z,19.99
2022-11-02T14:28:38.659Z,20.00
2022-11-02T14:31:04.929Z,20.02
2022-11-02T14:33:31.205Z,20.03
2022-11-02T14:35:57.550Z,19.99
2022-11-02T14:38:23.809Z,19.98
2022-11-02T14:40:50.052Z,19.91
2022-11-02T14:43:16.297Z,19.89
2022-11-02T14:45:42.558Z,19.82
2022-11-02T14:48:08.867Z,19.77
2022-11-02T14:50:35.138Z,19.74
2022-11-02T14:53:01.393Z,19.70
2022-11-02T14:55:27.667Z,19.60
2022-11-02T14:57:54.129Z,19.53
2022-11-02T15:00:20.461Z,19.47
2022-11-02T15:02:46.725Z,19.37
2022-11-02T15:05:12.975Z,19.24
2022-11-02T15:07:39.221Z,19.11
2022-11-02T15:10:05.542Z,19.03
2022-11-02T15:12:31.849Z,18.99
2022-11-02T15:16:50.407Z,17.91
2022-11-02T15:19:16.697Z,17.86
2022-11-02T15:21:42.981Z,17.76
2022-11-02T15:24:11.041Z,17.70
2022-11-02T15:26:42.095Z,17.60
2022-11-02T15:29:08.674Z,17.50
2022-11-02T15:31:34.953Z,17.41
2022-11-02T15:34:01.205Z,17.33
2022-11-02T15:36:27.464Z,17.27
2022-11-02T15:38:53.730Z,17.18
2022-11-02T15:41:20.087Z,17.08
2022-11-02T15:43:46.355Z,16.99
2022-11-02T15:46:12.690Z,16.88
2022-11-02T15:48:38.976Z,16.78
2022-11-02T15:51:05.352Z,16.69
2022-11-02T15:53:31.647Z,16.63
2022-11-02T15:55:57.928Z,16.57
2022-11-02T15:58:24.171Z,16.50
2022-11-02T16:00:50.492Z,16.46
2022-11-02T16:03:16.769Z,16.43
2022-11-02T16:05:43.136Z,16.36
2022-11-02T16:08:11.222Z,16.30
2022-11-02T16:10:37.893Z,16.22
2022-11-02T16:13:04.191Z,16.17
2022-11-02T16:15:30.464Z,16.15
2022-11-02T16:17:56.751Z,16.10
2022-11-02T16:20:23.020Z,16.07
2022-11-02T16:22:49.284Z,15.99
2022-11-02T16:25:15.537Z,15.93
2022-11-02T16:27:41.814Z,15.86
2022-11-02T16:30:08.057Z,15.81
2022-11-02T16:32:34.343Z,15.77
2022-11-02T16:35:00.599Z,15.73
2022-11-02T16:37:26.853Z,15.67
2022-11-02T16:39:53.205Z,15.63
2022-11-02T16:42:19.534Z,15.54
2022-11-02T16:47:16.977Z,15.38
2022-11-02T16:49:43.229Z,15.28
2022-11-02T16:52:09.489Z,15.18
2022-11-02T16:54:35.762Z,15.12
2022-11-02T16:57:04.913Z,15.03
2022-11-02T16:59:33.547Z,14.93
2022-11-02T17:01:59.951Z,14.87
2022-11-02T17:04:26.426Z,14.81
2022-11-02T17:06:52.667Z,14.75
2022-11-02T17:09:18.938Z,14.76
2022-11-02T17:11:45.244Z,14.74
2022-11-02T17:14:11.484Z,14.68
2022-11-02T17:16:37.969Z,14.64
2022-11-02T17:19:04.251Z,14.60
2022-11-02T17:21:30.550Z,14.53
2022-11-02T17:23:56.820Z,14.46
2022-11-02T17:26:23.074Z,14.46
2022-11-02T17:28:49.346Z,14.42
2022-11-02T17:31:15.589Z,14.35
2022-11-02T17:33:41.851Z,14.28
2022-11-02T17:36:08.139Z,14.22
2022-11-02T17:38:34.404Z,14.18
2022-11-02T17:41:00.736Z,14.14
2022-11-02T17:43:27.037Z,14.08
2022-11-02T17:45:53.295Z,14.01
2022-11-02T17:48:19.554Z,13.92
2022-11-02T17:50:45.805Z,13.91
2022-11-02T17:53:12.069Z,13.87
2022-11-02T17:55:38.424Z,13.79
2022-11-02T17:58:05.087Z,13.76
2022-11-02T18:00:31.629Z,13.68
2022-11-02T18:02:57.879Z,13.67
2022-11-02T18:05:24.126Z,13.56
2022-11-02T18:07:50.386Z,13.49
2022-11-02T18:10:16.642Z,13.39
2022-11-02T18:12:42.910Z,13.40
2022-11-02T18:15:09.180Z,13.37
2022-11-02T18:17:35.460Z,13.34
2022-11-02T18:20:01.789Z,13.27
2022-11-02T18:22:28.037Z,13.22
2022-11-02T18:24:54.348Z,13.19
2022-11-02T18:27:21.685Z,13.16
2022-11-02T18:29:49.971Z,13.12
2022-11-02T18:32:16.245Z,13.09
2022-11-02T18:34:42.497Z,13.06
2022-11-02T18:37:08.763Z,13.04
2022-11-02T18:39:35.025Z,13.04
2022-11-02T18:42:01.278Z,12.99
2022-11-02T18:44:27.522Z,12.95
2022-11-02T18:46:53.792Z,12.90
2022-11-02T18:49:20.061Z,12.88
2022-11-02T18:51:46.372Z,12.85
2022-11-02T18:54:12.727Z,12.86
2022-11-02T18:56:39.120Z,12.83
2022-11-02T18:59:05.387Z,12.81
2022-11-02T19:01:31.784Z,12.80
2022-11-02T19:03:58.245Z,12.76
2022-11-02T19:06:24.521Z,12.73
2022-11-02T19:08:50.779Z,12.71
2022-11-02T19:11:17.048Z,12.66
2022-11-02T19:13:43.339Z,12.65
2022-11-02T19:16:09.579Z,12.61
2022-11-02T19:18:35.841Z,12.60
2022-11-02T19:21:02.131Z,12.57
2022-11-02T19:23:28.369Z,12.57
2022-11-02T19:25:54.611Z,12.57
2022-11-02T19:28:20.874Z,12.57
2022-11-02T19:30:47.143Z,12.51
2022-11-02T19:33:13.392Z,12.49
2022-11-02T19:35:39.658Z,12.48
2022-11-02T19:38:05.921Z,12.42
2022-11-02T19:40:32.162Z,12.38
2022-11-02T19:42:58.450Z,12.32
2022-11-02T19:45:24.711Z,12.27
2022-11-02T19:47:50.963Z,12.24
2022-11-02T19:50:17.211Z,12.18
2022-11-02T19:52:43.482Z,12.13
2022-11-02T19:55:09.764Z,12.10
2022-11-02T19:57:36.025Z,12.06
2022-11-02T20:00:02.312Z,12.00
2022-11-02T20:02:28.661Z,11.98
2022-11-02T20:04:54.959Z,11.97
2022-11-02T20:07:21.288Z,11.92
2022-11-02T20:09:47.547Z,11.90
2022-11-02T20:12:13.781Z,11.88
2022-11-02T20:14:40.042Z,11.89
2022-11-02T20:17:29.542Z,11.86
2022-11-02T20:19:52.598Z,11.86
2022-11-02T20:22:18.855Z,11.88
2022-11-02T20:24:45.281Z,11.84
2022-11-02T20:27:11.533Z,11.80
2022-11-02T20:29:37.795Z,11.77
2022-11-02T20:32:04.133Z,11.76
2022-11-02T20:34:30.393Z,11.75
2022-11-02T20:36:56.635Z,11.69
2022-11-02T20:39:22.906Z,11.59
2022-11-02T20:41:49.158Z,11.57
2022-11-02T20:44:15.443Z,11.53
2022-11-02T20:46:42.582Z,11.47
2022-11-02T20:51:56.298Z,11.40
2022-11-02T20:54:22.562Z,11.42
2022-11-02T20:56:48.821Z,11.39
2022-11-02T20:59:15.071Z,11.34
2022-11-02T21:01:41.497Z,11.32
2022-11-02T21:04:07.945Z,11.28
2022-11-02T21:06:34.206Z,11.22
2022-11-02T21:09:00.636Z,11.17
2022-11-02T21:11:27.060Z,11.11
2022-11-02T21:13:53.322Z,11.07
2022-11-02T21:16:19.654Z,11.05
2022-11-02T21:18:45.903Z,10.99
2022-11-02T21:21:12.161Z,10.98
2022-11-02T21:23:38.428Z,10.93
2022-11-02T21:26:04.688Z,10.90
2022-11-02T21:28:30.988Z,10.88
2022-11-02T21:30:57.256Z,10.84
2022-11-02T21:33:23.506Z,10.81
2022-11-02T21:35:49.753Z,10.78
2022-11-02T21:38:16.011Z,10.77
2022-11-02T21:40:42.246Z,10.73
2022-11-02T21:43:08.743Z,10.67
2022-11-02T21:45:38.093Z,10.68
2022-11-02T21:48:04.565Z,10.64
2022-11-02T21:50:30.816Z,10.61
2022-11-02T21:52:57.065Z,10.63
2022-11-02T21:55:23.305Z,10.59
2022-11-02T21:57:49.552Z,10.57
2022-11-02T22:00:15.824Z,10.55
2022-11-02T22:02:42.219Z,10.55
2022-11-02T22:05:08.569Z,10.54
2022-11-02T22:07:34.835Z,10.52
2022-11-02T22:10:01.303Z,10.51
2022-11-02T22:12:27.627Z,10.47
2022-11-02T22:14:53.860Z,10.46
2022-11-02T22:17:47.797Z,10.41
2022-11-02T22:20:06.505Z,10.40
2022-11-02T22:22:32.830Z,10.38
2022-11-02T22:24:59.284Z,10.37
2022-11-02T22:27:25.554Z,10.32
2022-11-02T22:29:51.858Z,10.30
2022-11-02T22:32:18.118Z,10.30
2022-11-02T22:34:44.355Z,10.31
2022-11-02T22:37:10.596Z,10.26
2022-11-02T22:39:36.857Z,10.24
2022-11-02T22:42:03.103Z,10.22
2022-11-02T22:44:29.353Z,10.20
2022-11-02T22:46:55.592Z,10.19
2022-11-02T22:49:21.826Z,10.17
2022-11-02T22:51:48.074Z,10.13
2022-11-02T22:54:14.312Z,10.06
2022-11-02T22:56:40.554Z,10.06
2022-11-02T22:59:06.796Z,10.07
2022-11-02T23:01:33.344Z,10.04
2022-11-02T23:03:59.665Z,10.03
2022-11-02T23:06:26.010Z,9.96
2022-11-02T23:08:52.263Z,9.96
2022-11-02T23:11:18.493Z,9.96
2022-11-02T23:13:44.733Z,9.95
2022-11-02T23:16:10.972Z,9.92
2022-11-02T23:18:37.216Z,9.87
2022-11-02T23:21:03.519Z,9.84
2022-11-02T23:23:29.763Z,9.82
2022-11-02T23:25:56.011Z,9.83
2022-11-02T23:28:22.271Z,9.81
2022-11-02T23:30:48.504Z,9.76
2022-11-02T23:33:14.758Z,9.75
2022-11-02T23:35:41.008Z,9.75
2022-11-02T23:38:07.340Z,9.69
2022-11-02T23:40:33.588Z,9.67
2022-11-02T23:42:59.841Z,9.64
2022-11-02T23:45:26.243Z,9.62
2022-11-02T23:47:52.510Z,9.63
2022-11-02T23:50:18.752Z,9.63
2022-11-02T23:52:45.014Z,9.60
2022-11-02T23:55:11.282Z,9.58
2022-11-02T23:57:37.542Z,9.60
